Time;durP1;ratioP1;P1;durP2;ratioP2;P2;SDS_P1;SDS_P2;PMS_P1;PMS_P2;Temp;Humidity;BMP_temperature;BMP_pressure;BME280_temperature;BME280_humidity;BME280_pressure;Samples;Min_cycle;Max_cycle;Signal;HPM_P1;HPM_P2
2023/12/12 00:01:54;;;;;;;15.52;10.15;;;5.80;99.90;;;;;;5027533;28;20523;-60
2023/12/12 00:04:20;;;;;;;18.85;10.88;;;5.90;99.90;;;;;;5025317;28;20120;-58
2023/12/12 00:06:45;;;;;;;17.65;10.65;;;5.90;99.90;;;;;;5010552;28;20112;-58
2023/12/12 00:09:11;;;;;;;18.98;10.32;;;5.80;99.90;;;;;;5031195;28;20911;-59
2023/12/12 00:11:36;;;;;;;16.90;11.25;;;5.80;99.90;;;;;;5014409;28;20156;-59
2023/12/12 00:14:02;;;;;;;15.13;10.48;;;5.90;99.90;;;;;;5028137;28;20057;-59
2023/12/12 00:16:28;;;;;;;18.17;11.35;;;5.80;99.90;;;;;;5031056;28;20075;-59
2023/12/12 00:18:54;;;;;;;18.52;11.10;;;5.80;99.90;;;;;;5019314;28;20028;-58
2023/12/12 00:21:19;;;;;;;16.08;10.73;;;5.80;99.90;;;;;;5035755;28;20444;-59
2023/12/12 00:23:45;;;;;;;19.05;10.07;;;5.70;99.90;;;;;;5010549;28;20038;-59
2023/12/12 00:26:12;;;;;;;19.50;10.10;;;5.70;99.90;;;;;;5032907;28;20451;-59
2023/12/12 00:28:38;;;;;;;16.13;10.48;;;5.70;99.90;;;;;;5025839;28;20049;-60
2023/12/12 00:31:04;;;;;;;19.88;11.25;;;5.80;99.90;;;;;;5029000;28;20064;-59
2023/12/12 00:33:30;;;;;;;17.00;11.00;;;5.70;99.90;;;;;;5024159;28;20051;-57
2023/12/12 00:35:55;;;;;;;19.85;11.63;;;5.70;99.90;;;;;;5010833;28;20033;-59
2023/12/12 00:38:28;;;;;;;17.42;11.27;;;5.70;99.90;;;;;;5009747;28;20026;-60
2023/12/12 00:40:53;;;;;;;21.55;12.20;;;5.70;99.90;;;;;;5027500;28;20025;-60
2023/12/12 00:43:20;;;;;;;21.98;11.55;;;5.70;99.90;;;;;;5031435;28;20482;-59
2023/12/12 00:45:46;;;;;;;18.38;10.90;;;5.70;99.90;;;;;;5011903;28;20552;-59
2023/12/12 00:48:11;;;;;;;14.70;10.20;;;5.70;99.90;;;;;;5033150;28;20061;-58
2023/12/12 00:50:37;;;;;;;17.92;9.45;;;5.60;99.90;;;;;;5029973;28;20037;-60
2023/12/12 00:53:03;;;;;;;17.70;10.95;;;5.70;99.90;;;;;;5034527;28;20033;-59
2023/12/12 00:55:28;;;;;;;15.35;10.52;;;5.70;99.90;;;;;;5032832;28;20448;-59
2023/12/12 00:57:54;;;;;;;16.67;10.98;;;5.70;99.90;;;;;;5034149;28;20022;-60
2023/12/12 01:00:20;;;;;;;20.30;11.05;;;5.70;99.90;;;;;;5027226;28;20536;-60
2023/12/12 01:02:45;;;;;;;20.35;11.18;;;5.70;99.90;;;;;;5030064;28;20026;-60
2023/12/12 01:05:12;;;;;;;19.00;10.25;;;5.70;99.90;;;;;;5023588;28;20512;-60
2023/12/12 01:07:37;;;;;;;20.35;10.57;;;5.60;99.90;;;;;;5026628;28;20547;-60
2023/12/12 01:10:04;;;;;;;23.00;11.52;;;5.60;99.90;;;;;;5032699;28;20033;-60
2023/12/12 01:12:30;;;;;;;18.15;11.00;;;5.60;99.90;;;;;;5022881;28;20030;-59
2023/12/12 01:14:58;;;;;;;17.17;10.65;;;5.60;99.90;;;;;;5030743;28;20037;-59
2023/12/12 01:17:28;;;;;;;15.35;9.90;;;5.60;99.90;;;;;;5023466;28;20030;-59
2023/12/12 01:19:54;;;;;;;15.40;9.50;;;5.60;99.90;;;;;;5017579;28;20018;-60
2023/12/12 01:22:20;;;;;;;17.05;10.13;;;5.60;99.90;;;;;;5027271;28;20037;-59
2023/12/12 01:24:45;;;;;;;19.10;10.13;;;5.60;99.90;;;;;;5004813;28;20025;-60
2023/12/12 01:27:11;;;;;;;26.33;11.38;;;5.60;99.90;;;;;;5024292;28;20068;-60
2023/12/12 01:29:37;;;;;;;20.80;10.38;;;5.60;99.90;;;;;;5018166;28;20033;-60
2023/12/12 01:32:03;;;;;;;20.08;11.00;;;5.60;99.90;;;;;;4989434;28;20059;-60
2023/12/12 01:34:28;;;;;;;20.50;10.73;;;5.60;99.90;;;;;;5023112;28;20021;-58
2023/12/12 01:36:54;;;;;;;18.90;9.80;;;5.60;99.90;;;;;;5023523;28;20042;-59
2023/12/12 01:39:20;;;;;;;23.08;11.88;;;5.50;99.90;;;;;;5022692;28;20513;-60
2023/12/12 01:41:49;;;;;;;18.83;10.80;;;5.60;99.90;;;;;;5008611;28;20488;-59
2023/12/12 01:44:15;;;;;;;19.38;11.65;;;5.60;99.90;;;;;;5024278;28;20030;-59
2023/12/12 01:46:44;;;;;;;20.70;11.65;;;5.50;99.90;;;;;;5021725;28;20079;-59
2023/12/12 01:49:10;;;;;;;19.42;9.93;;;5.50;99.90;;;;;;5027493;28;20025;-60
2023/12/12 01:51:36;;;;;;;22.25;11.52;;;5.50;99.90;;;;;;5007918;28;20040;-58
2023/12/12 01:54:03;;;;;;;22.00;10.93;;;5.60;99.90;;;;;;5021550;28;20291;-58
2023/12/12 01:56:29;;;;;;;16.35;9.63;;;5.50;99.90;;;;;;5021677;28;20056;-59
2023/12/12 01:58:57;;;;;;;19.48;9.50;;;5.60;99.90;;;;;;5020196;28;20033;-59
2023/12/12 02:01:23;;;;;;;15.38;8.98;;;5.60;99.90;;;;;;5029454;28;20583;-59
2023/12/12 02:03:52;;;;;;;28.00;12.68;;;5.60;99.90;;;;;;5024832;28;20030;-59
2023/12/12 02:06:22;;;;;;;23.25;12.07;;;5.60;99.90;;;;;;5011250;28;20049;-60
2023/12/12 02:08:49;;;;;;;19.25;9.45;;;5.60;99.90;;;;;;5013838;28;20044;-59
2023/12/12 02:11:15;;;;;;;17.20;9.48;;;5.60;99.90;;;;;;5029396;28;20033;-59
2023/12/12 02:13:40;;;;;;;17.90;9.27;;;5.60;99.90;;;;;;5001201;28;20033;-59
2023/12/12 02:16:06;;;;;;;16.63;9.18;;;5.60;99.90;;;;;;5017009;28;20429;-58
2023/12/12 02:18:32;;;;;;;14.48;8.50;;;5.60;99.90;;;;;;5018485;28;20113;-58
2023/12/12 02:21:00;;;;;;;18.63;9.10;;;5.60;99.90;;;;;;5032591;28;20025;-59
2023/12/12 02:23:27;;;;;;;16.85;8.65;;;5.60;99.90;;;;;;5033247;28;20520;-59
2023/12/12 02:25:53;;;;;;;20.00;9.98;;;5.60;99.90;;;;;;5026670;28;20408;-60
2023/12/12 02:28:19;;;;;;;18.85;9.75;;;5.60;99.90;;;;;;5006916;28;20037;-58
2023/12/12 02:30:44;;;;;;;15.85;8.45;;;5.60;99.90;;;;;;5023840;28;20713;-60
2023/12/12 02:33:10;;;;;;;14.13;8.60;;;5.60;99.90;;;;;;5026835;28;20033;-59
2023/12/12 02:35:36;;;;;;;15.13;8.25;;;5.60;99.90;;;;;;5027528;28;20048;-58
2023/12/12 02:38:01;;;;;;;15.40;8.73;;;5.60;99.90;;;;;;5011577;28;20057;-57
2023/12/12 02:40:27;;;;;;;15.85;9.00;;;5.50;99.90;;;;;;5025105;28;20033;-59
2023/12/12 02:42:52;;;;;;;15.05;8.88;;;5.60;99.90;;;;;;5023361;28;20034;-59
2023/12/12 02:45:18;;;;;;;17.42;8.70;;;5.60;99.90;;;;;;5027436;28;20025;-59
2023/12/12 02:47:44;;;;;;;16.80;9.07;;;5.60;99.90;;;;;;5026634;28;20036;-59
2023/12/12 02:50:09;;;;;;;15.85;8.75;;;5.50;99.90;;;;;;5027007;28;20029;-59
2023/12/12 02:52:35;;;;;;;17.38;9.98;;;5.50;99.90;;;;;;5027574;28;20033;-61
2023/12/12 02:55:01;;;;;;;16.13;8.93;;;5.50;99.90;;;;;;5025764;28;20026;-58
2023/12/12 02:57:26;;;;;;;16.38;9.70;;;5.50;99.90;;;;;;5012882;28;20057;-60
2023/12/12 02:59:52;;;;;;;15.73;9.52;;;5.50;99.90;;;;;;5007578;28;20109;-60
2023/12/12 03:02:18;;;;;;;19.92;9.52;;;5.50;99.90;;;;;;5030289;28;20036;-59
2023/12/12 03:04:44;;;;;;;19.98;10.88;;;5.50;99.90;;;;;;5004626;28;20034;-59
2023/12/12 03:07:10;;;;;;;19.52;10.50;;;5.40;99.90;;;;;;5032023;28;20465;-59
2023/12/12 03:09:35;;;;;;;18.00;10.63;;;5.40;99.90;;;;;;5031716;28;20026;-60
2023/12/12 03:12:01;;;;;;;18.15;9.27;;;5.40;99.90;;;;;;5028292;28;20022;-59
2023/12/12 03:14:28;;;;;;;19.73;9.60;;;5.40;99.90;;;;;;5031234;28;20570;-59
2023/12/12 03:16:55;;;;;;;17.92;9.02;;;5.40;99.90;;;;;;5023616;28;20026;-58
2023/12/12 03:19:22;;;;;;;16.77;9.68;;;5.40;99.90;;;;;;5025817;28;20038;-60
2023/12/12 03:21:51;;;;;;;20.02;9.43;;;5.40;99.90;;;;;;5018709;28;20143;-60
2023/12/12 03:24:17;;;;;;;16.08;8.80;;;5.40;99.90;;;;;;5032095;28;20022;-60
2023/12/12 03:26:43;;;;;;;23.10;9.13;;;5.40;99.90;;;;;;5027955;28;20112;-59
2023/12/12 03:29:09;;;;;;;13.10;8.25;;;5.40;99.90;;;;;;5031334;28;20400;-60
2023/12/12 03:31:34;;;;;;;13.18;9.25;;;5.40;99.90;;;;;;5023967;28;20022;-58
2023/12/12 03:34:00;;;;;;;16.70;10.40;;;5.40;99.90;;;;;;5025842;28;20026;-60
2023/12/12 03:36:26;;;;;;;25.23;10.90;;;5.40;99.90;;;;;;5022847;28;20469;-60
2023/12/12 03:38:51;;;;;;;23.88;12.25;;;5.40;99.90;;;;;;5028256;28;20033;-60
2023/12/12 03:41:17;;;;;;;25.25;11.23;;;5.30;99.90;;;;;;5030530;28;20486;-60
2023/12/12 03:43:42;;;;;;;18.85;10.43;;;5.30;99.90;;;;;;5024497;28;20037;-59
2023/12/12 03:46:14;;;;;;;22.52;10.65;;;5.30;99.90;;;;;;5030953;28;20028;-60
2023/12/12 03:48:40;;;;;;;20.65;9.60;;;5.30;99.90;;;;;;5022174;28;20494;-60
2023/12/12 03:51:12;;;;;;;19.17;9.60;;;5.30;99.90;;;;;;5026881;28;20033;-60
2023/12/12 03:53:39;;;;;;;19.17;10.50;;;5.30;99.90;;;;;;5025596;28;20103;-60
2023/12/12 03:56:06;;;;;;;19.48;11.23;;;5.30;99.90;;;;;;5025726;28;20045;-60
2023/12/12 03:58:32;;;;;;;18.75;9.70;;;5.30;99.90;;;;;;5030718;28;20036;-59
2023/12/12 04:00:57;;;;;;;15.30;8.50;;;5.30;99.90;;;;;;5027936;28;20022;-59
2023/12/12 04:03:23;;;;;;;22.67;10.65;;;5.30;99.90;;;;;;5025742;28;20059;-59
2023/12/12 04:05:48;;;;;;;15.48;8.60;;;5.30;99.90;;;;;;5030948;28;20120;-60
2023/12/12 04:08:14;;;;;;;18.30;8.75;;;5.30;99.90;;;;;;5010529;28;20515;-59
2023/12/12 04:10:39;;;;;;;19.95;11.23;;;5.30;99.90;;;;;;5024429;28;20741;-59
2023/12/12 04:13:05;;;;;;;25.00;12.25;;;5.30;99.90;;;;;;5029517;28;20667;-59
2023/12/12 04:15:30;;;;;;;16.25;9.20;;;5.30;99.90;;;;;;5029441;28;20048;-60
2023/12/12 04:17:56;;;;;;;19.67;9.73;;;5.30;99.90;;;;;;5028770;28;20104;-60
2023/12/12 04:20:22;;;;;;;19.73;10.57;;;5.30;99.90;;;;;;5036576;28;20047;-60
2023/12/12 04:22:47;;;;;;;16.67;10.10;;;5.30;99.90;;;;;;5027924;28;20088;-59
2023/12/12 04:25:13;;;;;;;18.30;8.57;;;5.40;99.90;;;;;;5035402;28;20036;-59
2023/12/12 04:27:39;;;;;;;19.35;10.38;;;5.30;99.90;;;;;;5025376;28;20029;-60
2023/12/12 04:30:05;;;;;;;18.48;9.60;;;5.30;99.90;;;;;;5033315;28;20379;-60
2023/12/12 04:32:31;;;;;;;23.10;11.38;;;5.30;99.90;;;;;;5031200;28;20420;-60
2023/12/12 04:34:58;;;;;;;26.50;11.50;;;5.30;99.90;;;;;;5024161;28;20387;-59
2023/12/12 04:37:24;;;;;;;22.15;11.52;;;5.20;99.90;;;;;;5035728;28;20096;-59
2023/12/12 04:39:49;;;;;;;20.80;11.00;;;5.20;99.90;;;;;;5026436;28;20105;-59
2023/12/12 04:42:15;;;;;;;25.45;12.27;;;5.20;99.90;;;;;;5036818;28;20033;-60
2023/12/12 04:44:44;;;;;;;24.25;11.50;;;5.20;99.90;;;;;;5031688;28;20558;-60
2023/12/12 04:47:10;;;;;;;25.15;11.18;;;5.20;99.90;;;;;;5027730;28;20034;-59
2023/12/12 04:49:36;;;;;;;21.52;10.77;;;5.20;99.90;;;;;;5036564;28;20025;-60
2023/12/12 04:52:02;;;;;;;23.58;11.27;;;5.20;99.90;;;;;;5036794;28;20140;-60
2023/12/12 04:54:27;;;;;;;23.15;11.38;;;5.20;99.90;;;;;;5038169;28;20096;-58
2023/12/12 04:56:53;;;;;;;26.02;11.38;;;5.20;99.90;;;;;;5030178;28;20123;-59
2023/12/12 04:59:19;;;;;;;26.83;11.73;;;5.20;99.90;;;;;;5016197;28;20500;-59
2023/12/12 05:01:45;;;;;;;31.67;12.13;;;5.20;99.90;;;;;;5031469;28;20026;-60
2023/12/12 05:04:10;;;;;;;21.98;11.40;;;5.20;99.90;;;;;;5036823;28;20021;-60
2023/12/12 05:06:36;;;;;;;28.63;11.00;;;5.20;99.90;;;;;;5028626;28;20050;-60
2023/12/12 05:09:02;;;;;;;25.90;11.55;;;5.20;99.90;;;;;;5013546;28;20029;-59
2023/12/12 05:11:28;;;;;;;23.02;10.25;;;5.20;99.90;;;;;;5035488;28;20029;-60
2023/12/12 05:13:54;;;;;;;26.40;10.85;;;5.30;99.90;;;;;;5032591;28;20033;-60
2023/12/12 05:16:19;;;;;;;22.77;10.88;;;5.30;99.90;;;;;;5032813;28;20543;-60
2023/12/12 05:18:45;;;;;;;27.88;11.82;;;5.30;99.90;;;;;;5026755;28;20025;-58
2023/12/12 05:21:11;;;;;;;24.48;11.05;;;5.30;99.90;;;;;;5035182;28;20033;-60
2023/12/12 05:23:37;;;;;;;23.48;9.73;;;5.30;99.90;;;;;;5031076;28;20066;-59
2023/12/12 05:26:02;;;;;;;21.40;9.25;;;5.30;99.90;;;;;;5036461;28;20049;-59
2023/12/12 05:28:28;;;;;;;18.80;9.70;;;5.30;99.90;;;;;;5012052;28;20144;-60
2023/12/12 05:30:54;;;;;;;18.73;10.43;;;5.30;99.90;;;;;;5029350;28;20525;-60
2023/12/12 05:33:20;;;;;;;23.67;10.07;;;5.30;99.90;;;;;;5034205;28;20025;-60
2023/12/12 05:35:48;;;;;;;25.08;11.23;;;5.30;99.90;;;;;;5027982;28;20067;-59
2023/12/12 05:38:13;;;;;;;21.58;10.95;;;5.30;99.90;;;;;;5026805;28;20024;-59
2023/12/12 05:40:39;;;;;;;24.30;11.18;;;5.30;99.90;;;;;;5032600;28;20017;-59
2023/12/12 05:43:04;;;;;;;20.85;10.65;;;5.40;99.90;;;;;;5009495;28;20087;-60
2023/12/12 05:45:30;;;;;;;22.25;9.98;;;5.30;99.90;;;;;;5013956;28;20648;-59
2023/12/12 05:47:56;;;;;;;22.63;11.15;;;5.30;99.90;;;;;;5028308;28;20079;-60
2023/12/12 05:50:21;;;;;;;23.15;11.07;;;5.30;99.90;;;;;;5013848;28;20035;-59
2023/12/12 05:52:47;;;;;;;25.35;12.02;;;5.30;99.90;;;;;;5033981;28;20485;-59
2023/12/12 05:55:13;;;;;;;24.70;10.80;;;5.30;99.90;;;;;;5032193;28;20025;-57
2023/12/12 05:57:39;;;;;;;19.27;10.70;;;5.30;99.90;;;;;;5031509;28;20021;-60
2023/12/12 06:00:05;;;;;;;21.55;10.80;;;5.30;99.90;;;;;;5011396;28;20032;-60
2023/12/12 06:02:31;;;;;;;20.92;9.98;;;5.30;99.90;;;;;;5032602;28;20105;-60
2023/12/12 06:04:57;;;;;;;20.90;10.52;;;5.40;99.90;;;;;;5027257;28;20129;-59
2023/12/12 06:07:22;;;;;;;24.83;10.38;;;5.40;99.90;;;;;;5032137;28;20033;-60
2023/12/12 06:09:48;;;;;;;20.55;9.55;;;5.40;99.90;;;;;;5028918;28;20033;-60
2023/12/12 06:12:15;;;;;;;18.25;8.68;;;5.40;99.90;;;;;;5032728;28;20585;-60
2023/12/12 06:14:40;;;;;;;20.27;8.77;;;5.30;99.90;;;;;;5028859;28;20045;-60
2023/12/12 06:17:06;;;;;;;19.42;8.15;;;5.30;99.90;;;;;;5026035;28;20029;-60
2023/12/12 06:19:32;;;;;;;18.23;8.98;;;5.30;99.90;;;;;;5031461;28;20045;-60
2023/12/12 06:21:57;;;;;;;18.50;8.27;;;5.30;99.90;;;;;;5032384;28;20026;-59
2023/12/12 06:24:23;;;;;;;19.23;9.95;;;5.30;99.90;;;;;;5034069;28;20044;-58
2023/12/12 06:26:49;;;;;;;17.15;7.95;;;5.30;99.90;;;;;;5028780;28;20033;-60
2023/12/12 06:29:15;;;;;;;18.67;8.98;;;5.30;99.90;;;;;;5032252;28;20098;-59
2023/12/12 06:31:40;;;;;;;19.35;10.27;;;5.30;99.90;;;;;;5027090;28;20040;-59
2023/12/12 06:34:08;;;;;;;21.38;10.05;;;5.20;99.90;;;;;;5032039;28;20444;-60
2023/12/12 06:36:34;;;;;;;22.38;10.43;;;5.20;99.90;;;;;;5025907;28;20090;-60
2023/12/12 06:39:00;;;;;;;21.45;10.43;;;5.20;99.90;;;;;;5030316;28;20631;-60
2023/12/12 06:41:25;;;;;;;21.90;10.45;;;5.10;99.90;;;;;;5029340;28;20033;-60
2023/12/12 06:43:51;;;;;;;21.80;11.13;;;5.10;99.90;;;;;;5005969;28;20048;-60
2023/12/12 06:46:20;;;;;;;20.20;10.75;;;5.10;99.90;;;;;;5015494;28;20036;-60
2023/12/12 06:48:47;;;;;;;16.08;10.30;;;5.10;99.90;;;;;;5010436;28;20033;-60
2023/12/12 06:51:12;;;;;;;18.23;11.18;;;5.10;99.90;;;;;;5030691;28;20033;-59
2023/12/12 06:53:38;;;;;;;17.52;10.70;;;5.10;99.90;;;;;;5027291;28;20034;-60
2023/12/12 06:56:05;;;;;;;21.70;11.02;;;5.10;99.90;;;;;;5028870;28;20562;-59
2023/12/12 06:58:30;;;;;;;18.13;10.32;;;5.10;99.90;;;;;;5025507;28;20497;-60
2023/12/12 07:00:56;;;;;;;20.23;10.55;;;5.10;99.90;;;;;;5028950;28;20041;-60
2023/12/12 07:03:21;;;;;;;21.77;11.30;;;5.10;99.90;;;;;;5031910;28;20033;-60
2023/12/12 07:05:51;;;;;;;21.98;10.75;;;5.10;99.90;;;;;;5024747;28;20029;-59
2023/12/12 07:08:20;;;;;;;20.85;11.18;;;5.00;99.90;;;;;;5026138;28;20171;-60
2023/12/12 07:10:47;;;;;;;20.08;10.18;;;5.00;99.90;;;;;;5028107;28;20076;-60
2023/12/12 07:13:13;;;;;;;22.70;10.65;;;5.00;99.90;;;;;;5033728;28;20021;-60
2023/12/12 07:15:39;;;;;;;25.58;12.68;;;5.00;99.90;;;;;;5012737;28;20025;-60
2023/12/12 07:18:10;;;;;;;19.48;10.07;;;4.90;99.90;;;;;;5028984;28;20037;-60
2023/12/12 07:20:37;;;;;;;22.33;9.73;;;4.90;99.90;;;;;;5033540;28;20113;-60
2023/12/12 07:23:04;;;;;;;17.83;8.80;;;5.00;99.90;;;;;;5028675;28;20433;-60
2023/12/12 07:25:30;;;;;;;22.63;11.02;;;5.00;99.90;;;;;;5013605;28;20610;-60
2023/12/12 07:27:56;;;;;;;21.35;10.95;;;5.00;99.90;;;;;;5015304;28;20086;-60
2023/12/12 07:30:22;;;;;;;16.00;8.50;;;5.00;99.90;;;;;;5030428;28;20521;-59
2023/12/12 07:32:47;;;;;;;19.35;9.32;;;5.00;99.90;;;;;;5029251;28;20036;-61
2023/12/12 07:35:13;;;;;;;17.70;8.77;;;5.10;99.90;;;;;;5009708;28;20489;-59
2023/12/12 07:37:39;;;;;;;19.63;9.25;;;5.10;99.90;;;;;;5026976;28;20032;-61
2023/12/12 07:40:05;;;;;;;15.68;8.13;;;5.10;99.90;;;;;;5031448;28;20061;-59
2023/12/12 07:42:31;;;;;;;15.25;8.77;;;5.00;99.90;;;;;;5026467;28;20036;-61
2023/12/12 07:44:57;;;;;;;16.73;8.68;;;5.00;99.90;;;;;;5027293;28;20683;-60
2023/12/12 07:47:23;;;;;;;16.85;8.13;;;5.00;99.90;;;;;;5032742;28;20083;-59
2023/12/12 07:49:49;;;;;;;12.85;7.68;;;5.00;99.90;;;;;;5032080;28;20029;-60
2023/12/12 07:52:15;;;;;;;12.23;7.90;;;5.00;99.90;;;;;;5013806;28;20045;-60
2023/12/12 07:54:42;;;;;;;15.15;8.02;;;5.10;99.90;;;;;;5015307;28;20548;-60
2023/12/12 07:57:08;;;;;;;11.75;6.75;;;5.10;99.90;;;;;;5035574;28;20021;-59
2023/12/12 07:59:34;;;;;;;13.20;6.07;;;5.10;99.90;;;;;;5031766;28;20109;-60
2023/12/12 08:02:00;;;;;;;11.02;6.30;;;5.10;99.90;;;;;;5033793;28;20029;-59
2023/12/12 08:04:26;;;;;;;12.50;6.28;;;5.10;99.90;;;;;;5034688;28;20107;-59
2023/12/12 08:06:51;;;;;;;11.77;6.85;;;5.10;99.90;;;;;;5029717;28;20037;-59
2023/12/12 08:09:17;;;;;;;14.57;6.82;;;5.10;99.90;;;;;;5028306;28;20137;-60
2023/12/12 08:11:42;;;;;;;10.00;5.60;;;5.10;99.90;;;;;;5033744;28;20113;-60
2023/12/12 08:14:08;;;;;;;9.77;5.65;;;5.10;99.90;;;;;;5033875;28;20658;-58
2023/12/12 08:16:33;;;;;;;10.15;6.30;;;5.10;99.90;;;;;;5037457;28;20493;-59
2023/12/12 08:19:00;;;;;;;11.32;6.25;;;5.10;99.90;;;;;;5035483;28;20521;-60
2023/12/12 08:21:26;;;;;;;11.02;5.63;;;5.10;99.90;;;;;;5036730;28;20090;-60
2023/12/12 08:23:54;;;;;;;12.98;6.75;;;5.20;99.90;;;;;;5029054;28;20537;-60
2023/12/12 08:26:24;;;;;;;11.38;6.40;;;5.20;99.90;;;;;;5027754;28;20057;-60
2023/12/12 08:28:49;;;;;;;16.92;7.68;;;5.20;99.90;;;;;;5025292;28;20406;-59
2023/12/12 08:31:15;;;;;;;13.88;7.18;;;5.20;99.90;;;;;;5031893;28;20038;-60
2023/12/12 08:33:42;;;;;;;13.05;7.60;;;5.20;99.90;;;;;;5033512;28;20108;-60
2023/12/12 08:36:10;;;;;;;13.38;6.93;;;5.20;99.90;;;;;;5028797;28;20119;-60
2023/12/12 08:38:36;;;;;;;14.23;6.95;;;5.20;99.90;;;;;;5034313;28;20026;-59
2023/12/12 08:41:02;;;;;;;15.75;7.45;;;5.20;99.90;;;;;;5035169;28;20033;-60
2023/12/12 08:43:28;;;;;;;17.23;7.57;;;5.20;99.90;;;;;;5017491;28;20512;-60
2023/12/12 08:45:55;;;;;;;13.20;7.53;;;5.20;99.90;;;;;;5034229;28;20030;-61
2023/12/12 08:48:21;;;;;;;12.02;6.68;;;5.20;99.90;;;;;;5035852;28;21230;-61
2023/12/12 08:50:48;;;;;;;17.30;8.35;;;5.20;99.90;;;;;;5033928;28;20033;-61
2023/12/12 08:53:15;;;;;;;15.52;7.72;;;5.20;99.90;;;;;;5014934;28;20032;-61
2023/12/12 08:55:42;;;;;;;17.05;8.10;;;5.20;99.90;;;;;;5031888;28;20110;-61
2023/12/12 08:58:07;;;;;;;17.63;7.82;;;5.20;99.90;;;;;;5014084;28;20025;-61
2023/12/12 09:00:33;;;;;;;15.75;7.45;;;5.20;99.90;;;;;;5029647;28;20041;-58
2023/12/12 09:02:59;;;;;;;15.48;7.95;;;5.20;99.90;;;;;;5033101;28;20036;-60
2023/12/12 09:05:25;;;;;;;13.20;6.43;;;5.20;99.90;;;;;;5033234;28;20037;-58
2023/12/12 09:07:51;;;;;;;15.55;8.02;;;5.30;99.90;;;;;;5027216;28;20045;-59
2023/12/12 09:10:17;;;;;;;15.32;7.57;;;5.30;99.90;;;;;;5009819;28;20150;-60
2023/12/12 09:12:42;;;;;;;13.98;7.53;;;5.30;99.90;;;;;;5032094;28;20135;-60
2023/12/12 09:15:08;;;;;;;17.52;7.57;;;5.30;99.90;;;;;;5035612;28;20144;-60
2023/12/12 09:17:34;;;;;;;14.90;7.53;;;5.30;99.90;;;;;;5029806;28;20400;-61
2023/12/12 09:20:00;;;;;;;18.00;8.05;;;5.30;99.90;;;;;;5028874;28;20396;-60
2023/12/12 09:22:27;;;;;;;14.70;7.47;;;5.30;99.90;;;;;;5031541;28;20512;-60
2023/12/12 09:24:52;;;;;;;11.40;5.78;;;5.30;99.90;;;;;;5017930;28;20061;-61
2023/12/12 09:27:18;;;;;;;17.25;6.95;;;5.30;99.90;;;;;;5030140;28;20058;-60
2023/12/12 09:29:44;;;;;;;15.00;7.35;;;5.30;99.90;;;;;;5035066;28;20079;-60
2023/12/12 09:32:09;;;;;;;16.27;6.90;;;5.30;99.90;;;;;;5029315;28;20033;-59
2023/12/12 09:34:35;;;;;;;16.65;7.68;;;5.30;99.90;;;;;;5026414;28;20626;-58
2023/12/12 09:37:00;;;;;;;15.85;7.15;;;5.40;99.90;;;;;;5011885;28;20037;-58
2023/12/12 09:39:26;;;;;;;17.55;8.18;;;5.40;99.90;;;;;;5033087;28;20112;-60
2023/12/12 09:41:53;;;;;;;14.55;6.57;;;5.40;99.90;;;;;;5031776;28;20033;-59
2023/12/12 09:44:19;;;;;;;14.85;8.15;;;5.40;99.90;;;;;;5030569;28;20446;-59
2023/12/12 09:46:46;;;;;;;14.85;7.80;;;5.40;99.90;;;;;;5031615;28;20092;-60
2023/12/12 09:49:14;;;;;;;13.23;7.13;;;5.40;99.90;;;;;;5029716;28;20049;-59
2023/12/12 09:51:41;;;;;;;14.55;7.13;;;5.40;99.90;;;;;;5018069;28;20107;-61
2023/12/12 09:54:07;;;;;;;19.77;8.35;;;5.50;99.90;;;;;;5012871;28;20033;-59
2023/12/12 09:56:37;;;;;;;16.00;8.02;;;5.50;99.90;;;;;;5029594;28;20021;-60
2023/12/12 09:59:04;;;;;;;15.27;7.65;;;5.50;99.90;;;;;;5010906;28;20109;-61
2023/12/12 10:01:35;;;;;;;15.32;8.48;;;5.50;99.90;;;;;;5031161;28;20029;-60
2023/12/12 10:04:05;;;;;;;13.98;7.97;;;5.50;99.90;;;;;;5024437;28;20034;-60
2023/12/12 10:06:49;;;;;;;17.88;8.60;;;5.60;99.90;;;;;;5012337;28;20033;-60
2023/12/12 10:09:15;;;;;;;15.68;7.65;;;5.60;99.90;;;;;;5012123;28;20653;-60
2023/12/12 10:11:40;;;;;;;19.48;8.43;;;5.60;99.90;;;;;;5035422;28;20076;-60
2023/12/12 10:14:06;;;;;;;16.30;7.65;;;5.70;99.90;;;;;;5026971;28;20167;-59
2023/12/12 10:16:32;;;;;;;16.95;7.65;;;5.60;99.90;;;;;;5014731;28;20029;-59
2023/12/12 10:19:01;;;;;;;15.18;7.13;;;5.70;99.90;;;;;;5026620;28;20022;-59
2023/12/12 10:21:28;;;;;;;17.20;8.52;;;5.60;99.90;;;;;;5029784;28;20117;-58
2023/12/12 10:23:54;;;;;;;17.45;8.10;;;5.70;99.90;;;;;;5024154;28;20033;-60
2023/12/12 10:26:29;;;;;;;11.07;6.28;;;5.70;99.90;;;;;;5031970;23;20103;-59
2023/12/12 10:28:56;;;;;;;12.93;6.70;;;5.70;99.90;;;;;;5006805;28;20129;-55
2023/12/12 10:31:22;;;;;;;12.98;6.18;;;5.70;99.90;;;;;;5012080;28;20022;-56
2023/12/12 10:33:53;;;;;;;10.45;5.57;;;5.70;99.90;;;;;;5006823;28;20074;-58
2023/12/12 10:36:18;;;;;;;11.60;5.97;;;5.70;99.90;;;;;;5013763;28;20030;-53
2023/12/12 10:38:44;;;;;;;12.75;7.15;;;5.80;99.90;;;;;;5003431;28;20184;-53
2023/12/12 10:41:18;;;;;;;7.18;4.80;;;5.80;99.90;;;;;;5008821;28;20021;-53
2023/12/12 10:43:45;;;;;;;7.97;5.10;;;5.80;99.90;;;;;;5005582;28;20502;-54
2023/12/12 10:46:13;;;;;;;10.93;4.57;;;5.80;99.90;;;;;;5016957;28;20505;-55
2023/12/12 10:48:48;;;;;;;9.30;5.38;;;5.80;99.90;;;;;;5008562;28;20029;-59
2023/12/12 10:51:18;;;;;;;8.50;5.53;;;5.80;99.90;;;;;;5007616;28;20156;-57
2023/12/12 10:53:46;;;;;;;13.07;5.60;;;5.80;99.90;;;;;;5003591;28;20418;-55
2023/12/12 10:56:13;;;;;;;7.45;4.90;;;5.80;99.90;;;;;;5006127;28;20343;-56
2023/12/12 10:58:41;;;;;;;8.55;4.68;;;5.80;99.90;;;;;;5008978;28;20522;-57
2023/12/12 11:01:09;;;;;;;8.98;5.40;;;5.90;99.90;;;;;;5009604;28;20072;-53
2023/12/12 11:03:36;;;;;;;8.27;4.95;;;5.90;99.90;;;;;;5010172;28;20021;-53
2023/12/12 11:06:05;;;;;;;8.70;5.03;;;5.90;99.90;;;;;;5003531;28;20033;-56
2023/12/12 11:08:32;;;;;;;6.38;4.28;;;6.00;99.90;;;;;;5003103;28;20696;-53
2023/12/12 11:11:00;;;;;;;8.52;5.07;;;6.00;99.90;;;;;;5008107;28;20025;-54
2023/12/12 11:13:30;;;;;;;6.07;4.60;;;6.00;99.90;;;;;;5007580;28;20037;-53
2023/12/12 11:15:59;;;;;;;6.07;3.95;;;6.00;99.90;;;;;;5003476;28;20609;-54
2023/12/12 11:18:24;;;;;;;7.05;4.00;;;6.00;99.90;;;;;;5012036;28;20028;-59
2023/12/12 11:20:50;;;;;;;5.90;3.90;;;6.00;99.90;;;;;;5006358;28;20018;-56
2023/12/12 11:23:43;;;;;;;6.97;4.30;;;6.00;99.90;;;;;;5009652;28;20430;-54
2023/12/12 11:26:10;;;;;;;7.32;4.53;;;6.00;99.90;;;;;;5005718;28;20022;-52
2023/12/12 11:28:38;;;;;;;7.00;4.38;;;5.90;99.90;;;;;;5008290;28;20022;-54
2023/12/12 11:31:04;;;;;;;6.45;3.85;;;5.80;99.90;;;;;;5009836;28;20065;-52
2023/12/12 11:33:30;;;;;;;6.20;4.43;;;5.80;99.90;;;;;;5009325;28;20458;-58
2023/12/12 11:35:55;;;;;;;4.72;3.38;;;5.80;99.90;;;;;;5005040;28;20022;-54
2023/12/12 11:38:34;;;;;;;4.70;3.85;;;5.80;99.90;;;;;;5007903;28;20121;-53
2023/12/12 11:41:13;;;;;;;5.53;3.83;;;5.80;99.90;;;;;;5002086;28;20026;-55
2023/12/12 11:43:40;;;;;;;7.07;4.30;;;5.80;99.90;;;;;;5008594;28;20494;-57
2023/12/12 11:46:19;;;;;;;7.38;4.30;;;5.90;99.90;;;;;;5009692;28;20053;-57
2023/12/12 11:48:45;;;;;;;6.07;4.15;;;5.80;99.90;;;;;;5007506;28;20030;-49
2023/12/12 11:51:33;;;;;;;7.07;4.75;;;5.90;99.90;;;;;;5009783;28;20375;-53
2023/12/12 11:54:01;;;;;;;6.30;4.35;;;5.90;99.90;;;;;;5005702;28;20030;-53
2023/12/12 11:56:27;;;;;;;6.22;4.47;;;5.90;99.90;;;;;;5010156;28;20053;-53
2023/12/12 11:58:55;;;;;;;6.28;4.60;;;5.90;99.90;;;;;;5009267;28;20053;-56
2023/12/12 12:01:26;;;;;;;7.88;4.30;;;5.90;99.90;;;;;;5008011;28;20060;-55
2023/12/12 12:03:52;;;;;;;7.15;4.88;;;5.90;99.90;;;;;;5007514;28;20035;-53
2023/12/12 12:06:18;;;;;;;7.13;4.70;;;5.80;99.90;;;;;;5003108;28;20072;-55
2023/12/12 12:08:43;;;;;;;9.85;4.82;;;5.90;99.90;;;;;;5003747;28;20108;-53
2023/12/12 12:11:11;;;;;;;6.88;5.30;;;5.90;99.90;;;;;;5010709;28;20100;-53
2023/12/12 12:13:40;;;;;;;9.30;5.32;;;5.80;99.90;;;;;;5008030;28;20029;-53
2023/12/12 12:16:10;;;;;;;8.43;5.38;;;5.80;99.90;;;;;;5007115;28;20029;-52
2023/12/12 12:18:37;;;;;;;8.55;5.70;;;5.80;99.90;;;;;;5007367;28;20030;-55
2023/12/12 12:21:04;;;;;;;10.68;5.38;;;5.80;99.90;;;;;;5008588;28;20034;-53
2023/12/12 12:23:32;;;;;;;7.47;5.35;;;5.80;99.90;;;;;;5002435;28;20493;-49
2023/12/12 12:26:00;;;;;;;11.23;5.82;;;5.80;99.90;;;;;;5004733;28;20533;-51
2023/12/12 12:28:33;;;;;;;10.68;6.18;;;5.80;99.90;;;;;;5011922;28;20422;-52
2023/12/12 12:30:59;;;;;;;12.75;6.10;;;5.80;99.90;;;;;;5003448;28;20112;-52
2023/12/12 12:36:48;;;;;;;11.02;6.88;;;5.80;99.90;;;;;;4970909;28;20056;-53
2023/12/12 12:39:15;;;;;;;9.38;6.10;;;5.80;99.90;;;;;;5003851;28;20030;-52
2023/12/12 12:41:43;;;;;;;9.95;6.30;;;5.80;99.90;;;;;;4997148;28;20034;-55
2023/12/12 12:44:13;;;;;;;11.63;6.85;;;5.80;99.90;;;;;;4995838;28;20085;-52
2023/12/12 12:46:46;;;;;;;12.68;7.38;;;5.80;99.90;;;;;;5001774;28;20037;-49